Time;durP1;ratioP1;P1;durP2;ratioP2;P2;SDS_P1;SDS_P2;PMS_P1;PMS_P2;Temp;Humidity;BMP_temperature;BMP_pressure;BME280_temperature;BME280_humidity;BME280_pressure;Samples;Min_cycle;Max_cycle;Signal;HPM_P1;HPM_P2
2023/08/09 00:04:58;;;;;;;2.97;1.40;;;;;;;14.97;66.69;99606.06;10482667;28;20051;-59
2023/08/09 00:10:00;;;;;;;1.95;1.00;;;;;;;14.97;66.91;99598.16;10481936;28;20045;-59
2023/08/09 00:15:03;;;;;;;2.47;1.27;;;;;;;14.97;67.10;99585.84;10481469;28;20056;-59
2023/08/09 00:20:07;;;;;;;1.38;1.15;;;;;;;15.12;66.60;99574.00;10463032;28;20056;-59
2023/08/09 00:25:13;;;;;;;3.00;1.75;;;;;;;15.12;66.90;99574.00;10481263;28;20083;-59
2023/08/09 00:30:15;;;;;;;1.77;1.00;;;;;;;15.03;66.64;99577.44;10496485;28;20124;-59
2023/08/09 00:35:17;;;;;;;1.42;0.98;;;;;;;15.03;67.24;99571.31;10463034;28;20067;-59
2023/08/09 00:40:19;;;;;;;2.90;1.38;;;;;;;15.08;66.94;99574.41;10445683;28;20044;-59
2023/08/09 00:45:23;;;;;;;1.38;1.08;;;;;;;14.97;67.73;99577.94;10495492;28;20585;-59
2023/08/09 00:50:26;;;;;;;2.03;1.40;;;;;;;14.96;67.70;99585.97;10480799;28;20122;-59
2023/08/09 00:55:28;;;;;;;2.33;1.45;;;;;;;15.00;67.57;99584.75;10461546;28;20497;-59
2023/08/09 01:00:31;;;;;;;3.20;1.17;;;;;;;15.08;67.28;99585.75;10461656;28;20055;-59
2023/08/09 01:05:41;;;;;;;2.17;1.27;;;;;;;15.14;67.57;99598.41;10479250;28;20044;-59
2023/08/09 01:10:51;;;;;;;1.80;1.20;;;;;;;15.06;68.16;99608.75;10479580;28;20043;-59
2023/08/09 01:15:54;;;;;;;1.73;1.27;;;;;;;14.98;68.00;99600.66;10460970;28;20057;-59
2023/08/09 01:20:57;;;;;;;2.45;1.35;;;;;;;15.00;68.36;99582.94;10478929;28;20048;-59
2023/08/09 01:25:59;;;;;;;1.65;1.10;;;;;;;15.03;67.90;99564.25;10460772;28;20139;-59
2023/08/09 01:31:03;;;;;;;2.58;1.10;;;;;;;15.02;68.20;99567.03;10444751;28;20417;-58
2023/08/09 01:36:18;;;;;;;3.45;1.48;;;;;;;15.01;68.86;99567.97;10493370;28;20055;-59
2023/08/09 01:41:21;;;;;;;1.52;1.23;;;;;;;14.99;68.35;99567.28;10461298;28;20048;-58
2023/08/09 01:46:23;;;;;;;2.90;1.60;;;;;;;14.93;68.34;99565.16;10460121;28;20052;-58
2023/08/09 01:51:26;;;;;;;2.00;1.10;;;;;;;14.96;68.25;99575.44;10459844;28;20052;-59
2023/08/09 01:56:29;;;;;;;2.70;1.10;;;;;;;14.96;68.63;99572.81;10476951;28;20044;-59
2023/08/09 02:01:31;;;;;;;2.22;1.50;;;;;;;14.92;68.79;99568.75;10459112;28;20462;-59
2023/08/09 02:06:34;;;;;;;3.08;1.60;;;;;;;14.80;69.39;99572.41;10458812;28;20059;-59
2023/08/09 02:11:36;;;;;;;2.17;1.30;;;;;;;14.79;69.37;99570.72;10459221;28;20037;-59
2023/08/09 02:16:38;;;;;;;2.25;1.40;;;;;;;14.88;69.22;99568.16;10476433;28;20128;-59
2023/08/09 02:21:44;;;;;;;2.63;1.50;;;;;;;14.91;69.32;99582.88;10459064;28;20056;-58
2023/08/09 02:26:47;;;;;;;4.95;1.33;;;;;;;14.88;69.29;99552.38;10458676;28;20161;-59
2023/08/09 02:31:49;;;;;;;2.22;1.40;;;;;;;14.83;69.88;99573.00;10458421;28;20165;-59
2023/08/09 02:36:51;;;;;;;2.47;1.50;;;;;;;14.83;69.44;99564.25;10457432;28;20401;-59
2023/08/09 02:41:53;;;;;;;2.10;1.35;;;;;;;14.91;69.40;99562.66;10458038;28;20153;-59
2023/08/09 02:46:55;;;;;;;1.25;1.08;;;;;;;14.86;69.79;99562.19;10457972;28;20131;-59
2023/08/09 02:51:57;;;;;;;3.03;1.73;;;;;;;14.86;69.61;99559.56;10474281;28;20135;-59
2023/08/09 02:56:59;;;;;;;4.88;1.52;;;;;;;14.92;69.60;99564.31;10475945;28;20179;-59
2023/08/09 03:02:03;;;;;;;4.25;1.77;;;;;;;14.91;69.69;99567.06;10475946;28;20036;-59
2023/08/09 03:07:06;;;;;;;2.80;1.52;;;;;;;14.99;69.64;99567.28;10456732;28;20047;-59
2023/08/09 03:12:08;;;;;;;3.60;1.35;;;;;;;15.05;69.12;99564.97;10490463;28;20508;-59
2023/08/09 03:17:11;;;;;;;2.45;1.50;;;;;;;15.14;68.92;99568.63;10456032;28;20147;-59
2023/08/09 03:22:13;;;;;;;2.25;1.55;;;;;;;15.08;69.23;99562.06;10456944;28;20513;-59
2023/08/09 03:27:16;;;;;;;1.40;1.00;;;;;;;15.12;68.92;99571.38;10462877;28;20036;-59
2023/08/09 03:32:18;;;;;;;3.65;1.27;;;;;;;15.21;68.87;99564.50;10483698;28;20420;-59
2023/08/09 03:37:20;;;;;;;2.75;1.10;;;;;;;15.05;69.25;99564.97;10464722;28;20044;-58
2023/08/09 03:42:22;;;;;;;1.92;1.20;;;;;;;15.15;69.16;99567.66;10482131;28;20045;-59
2023/08/09 03:47:24;;;;;;;4.00;1.38;;;;;;;15.06;69.64;99563.19;10482635;28;20044;-58
2023/08/09 03:52:27;;;;;;;2.17;1.23;;;;;;;15.05;69.25;99569.41;10464152;28;20049;-59
2023/08/09 03:57:29;;;;;;;1.70;1.25;;;;;;;15.05;69.50;99569.41;10479762;28;20052;-58
2023/08/09 04:02:31;;;;;;;2.00;1.30;;;;;;;15.00;69.40;99572.41;10447664;28;20471;-58
2023/08/09 04:07:33;;;;;;;1.95;1.17;;;;;;;15.03;69.76;99574.78;10464043;28;20151;-58
2023/08/09 04:12:36;;;;;;;2.13;1.25;;;;;;;15.09;69.39;99576.91;10482280;28;20144;-58
2023/08/09 04:17:38;;;;;;;3.00;1.17;;;;;;;15.20;68.95;99584.75;10481111;28;20153;-58
2023/08/09 04:22:40;;;;;;;2.83;1.50;;;;;;;15.14;68.99;99581.81;10481066;28;20048;-58
2023/08/09 04:27:42;;;;;;;5.53;1.65;;;;;;;15.06;69.31;99576.34;10461763;28;20102;-58
2023/08/09 04:32:44;;;;;;;1.98;1.35;;;;;;;15.19;69.25;99592.78;10481114;28;20454;-58
2023/08/09 04:37:46;;;;;;;2.15;1.20;;;;;;;15.37;68.79;99592.06;10479319;28;20439;-59
2023/08/09 04:42:49;;;;;;;2.42;1.35;;;;;;;15.43;68.64;99598.59;10480829;28;20131;-59
2023/08/09 04:47:52;;;;;;;3.80;1.50;;;;;;;15.50;68.75;99607.69;10480261;28;20057;-59
2023/08/09 04:52:56;;;;;;;1.27;1.10;;;;;;;15.48;68.68;99614.03;10480646;28;20040;-59
2023/08/09 04:57:58;;;;;;;6.35;1.20;;;;;;;15.52;68.77;99615.47;10480213;28;20041;-59
2023/08/09 05:03:00;;;;;;;2.15;1.30;;;;;;;15.62;68.42;99627.75;10462046;28;20131;-59
2023/08/09 05:08:02;;;;;;;1.80;1.20;;;;;;;15.72;68.47;99627.78;10479718;28;20053;-59
2023/08/09 05:13:04;;;;;;;2.25;1.50;;;;;;;15.69;67.97;99644.72;10479553;28;20481;-59
2023/08/09 05:18:06;;;;;;;1.88;1.40;;;;;;;15.75;67.93;99643.34;10479478;28;20052;-59
2023/08/09 05:23:08;;;;;;;2.85;1.08;;;;;;;15.82;68.24;99649.75;10478725;28;20768;-59
2023/08/09 05:28:13;;;;;;;1.42;1.05;;;;;;;15.81;68.13;99659.50;10478494;28;20050;-59
2023/08/09 05:33:15;;;;;;;2.05;1.23;;;;;;;15.87;68.06;99669.53;10478668;28;20048;-59
2023/08/09 05:38:17;;;;;;;3.05;1.30;;;;;;;15.96;68.02;99679.25;10478302;28;20044;-60
2023/08/09 05:43:19;;;;;;;2.25;1.17;;;;;;;16.06;67.87;99672.22;10477958;28;21224;-59
2023/08/09 05:48:21;;;;;;;1.15;1.02;;;;;;;16.02;67.77;99673.47;10477513;28;20131;-60
2023/08/09 05:53:23;;;;;;;2.08;1.05;;;;;;;16.07;68.16;99679.19;10459594;28;20143;-60
2023/08/09 05:58:25;;;;;;;1.75;1.20;;;;;;;16.09;68.22;99687.81;10477606;28;20051;-60
2023/08/09 06:03:27;;;;;;;2.08;1.13;;;;;;;15.91;68.34;99705.22;10477542;28;20303;-60
2023/08/09 06:08:30;;;;;;;1.45;1.10;;;;;;;15.83;68.63;99706.81;10477181;28;20338;-60
2023/08/09 06:13:32;;;;;;;1.20;0.98;;;;;;;15.94;68.22;99723.41;10477032;28;20049;-59
2023/08/09 06:18:34;;;;;;;1.58;1.00;;;;;;;15.83;68.05;99741.94;10476502;28;20927;-59
2023/08/09 06:23:36;;;;;;;0.73;0.73;;;;;;;15.74;68.10;99753.25;10476839;28;20494;-60
2023/08/09 06:28:38;;;;;;;0.50;0.50;;;;;;;15.69;68.01;99755.47;10476724;28;20142;-60
2023/08/09 06:33:42;;;;;;;0.50;0.50;;;;;;;15.84;67.22;99764.69;10476328;28;20131;-59
2023/08/09 06:38:45;;;;;;;1.20;0.80;;;;;;;15.97;67.32;99765.34;10458005;28;20478;-58
2023/08/09 06:43:47;;;;;;;0.55;0.55;;;;;;;16.02;67.22;99771.06;10476007;28;20068;-58
2023/08/09 06:48:49;;;;;;;1.75;0.70;;;;;;;16.11;66.77;99772.09;10476179;28;20934;-59
2023/08/09 06:53:51;;;;;;;0.55;0.55;;;;;;;16.35;66.82;99771.78;10475666;28;20105;-58
2023/08/09 06:58:53;;;;;;;0.70;0.60;;;;;;;16.38;65.71;99785.56;10475033;28;20044;-59
2023/08/09 07:03:55;;;;;;;0.85;0.60;;;;;;;16.57;65.80;99782.22;10475657;28;20135;-59
2023/08/09 07:08:57;;;;;;;0.55;0.50;;;;;;;16.60;65.27;99793.34;10475790;28;20086;-59
2023/08/09 07:13:59;;;;;;;0.60;0.60;;;;;;;16.56;65.25;99797.22;10490605;28;20508;-59
2023/08/09 07:19:02;;;;;;;0.30;0.30;;;;;;;16.73;64.96;99803.69;10456980;28;20090;-58
2023/08/09 07:24:04;;;;;;;0.40;0.40;;;;;;;16.96;64.31;99819.19;10475209;28;20320;-59
2023/08/09 07:29:06;;;;;;;0.20;0.20;;;;;;;16.85;63.90;99827.19;10475666;28;20055;-59
2023/08/09 07:34:08;;;;;;;0.43;0.40;;;;;;;16.85;63.78;99834.31;10475072;28;20416;-59
2023/08/09 07:39:10;;;;;;;0.57;0.43;;;;;;;16.96;63.53;99845.59;10474991;28;20076;-59
2023/08/09 07:44:12;;;;;;;1.02;0.60;;;;;;;17.05;63.59;99854.53;10475013;28;20080;-58
2023/08/09 07:49:14;;;;;;;0.38;0.38;;;;;;;16.84;63.47;99866.94;10474909;28;20052;-58
2023/08/09 07:54:16;;;;;;;0.50;0.45;;;;;;;17.39;62.99;99870.91;10474696;28;20076;-59
2023/08/09 07:59:18;;;;;;;2.03;0.60;;;;;;;17.90;60.90;99863.59;10474153;28;20163;-59
2023/08/09 08:04:20;;;;;;;2.53;0.60;;;;;;;17.73;60.96;99859.81;10456046;28;20050;-59
2023/08/09 08:09:23;;;;;;;1.55;0.70;;;;;;;18.09;61.08;99868.88;10474460;28;20492;-59
2023/08/09 08:14:25;;;;;;;0.65;0.60;;;;;;;19.24;59.00;99852.66;10481665;28;20470;-59
2023/08/09 08:19:27;;;;;;;0.47;0.47;;;;;;;20.24;57.62;99856.78;10481320;28;20388;-59
2023/08/09 08:24:29;;;;;;;1.02;0.70;;;;;;;21.06;55.91;99854.47;10481413;28;20064;-59
2023/08/09 08:29:31;;;;;;;0.55;0.55;;;;;;;21.49;54.88;99856.13;10480645;28;20056;-59
2023/08/09 08:34:33;;;;;;;0.75;0.50;;;;;;;22.06;54.04;99868.56;10480862;28;20360;-59
2023/08/09 08:39:36;;;;;;;0.40;0.40;;;;;;;22.86;52.55;99870.28;10480724;28;20060;-59
2023/08/09 08:44:38;;;;;;;0.75;0.50;;;;;;;23.74;50.81;99869.03;10461585;28;20192;-59
2023/08/09 08:49:49;;;;;;;0.60;0.60;;;;;;;23.75;48.46;99869.88;10481014;28;20045;-59
2023/08/09 08:54:51;;;;;;;1.30;0.52;;;;;;;23.22;50.64;99884.00;10479879;28;20492;-60
2023/08/09 08:59:54;;;;;;;0.30;0.30;;;;;;;23.42;49.60;99885.25;10480060;28;20119;-59
2023/08/09 09:04:56;;;;;;;0.20;0.20;;;;;;;23.08;48.28;99890.06;10461881;28;20044;-60
2023/08/09 09:10:00;;;;;;;0.40;0.40;;;;;;;22.66;47.50;99891.13;10479359;28;20037;-60
2023/08/09 09:15:04;;;;;;;0.55;0.43;;;;;;;22.53;48.70;99890.84;10461087;28;20562;-60
2023/08/09 09:20:12;;;;;;;0.45;0.40;;;;;;;23.12;48.17;99888.72;10479486;28;20056;-60
2023/08/09 09:25:17;;;;;;;0.50;0.50;;;;;;;24.32;47.04;99876.47;10477925;28;20044;-60
2023/08/09 09:30:21;;;;;;;0.80;0.60;;;;;;;24.66;45.42;99875.97;10478776;28;20435;-60
2023/08/09 09:35:28;;;;;;;0.30;0.30;;;;;;;24.47;43.60;99873.84;10478833;28;20059;-60
2023/08/09 09:40:33;;;;;;;0.65;0.40;;;;;;;23.13;45.91;99879.69;10478466;28;20049;-60
2023/08/09 09:45:38;;;;;;;0.52;0.35;;;;;;;23.48;45.41;99884.56;10477780;28;20083;-59
2023/08/09 09:50:41;;;;;;;0.43;0.43;;;;;;;23.26;44.40;99883.50;10477880;28;20091;-61
2023/08/09 09:55:43;;;;;;;0.98;0.40;;;;;;;23.76;44.05;99891.06;10460216;28;20056;-60
2023/08/09 10:00:49;;;;;;;0.85;0.60;;;;;;;23.91;43.10;99883.97;10477492;28;20052;-59
2023/08/09 10:05:52;;;;;;;0.30;0.30;;;;;;;23.67;42.61;99881.47;10477522;28;20129;-60
2023/08/09 10:10:56;;;;;;;0.50;0.50;;;;;;;23.74;41.58;99882.41;10459402;28;20524;-59
2023/08/09 10:16:05;;;;;;;0.68;0.55;;;;;;;23.91;43.05;99896.47;10476975;28;20125;-60
2023/08/09 10:21:09;;;;;;;0.98;0.60;;;;;;;24.23;42.78;99893.59;10476610;28;20055;-60
2023/08/09 10:26:15;;;;;;;0.40;0.40;;;;;;;24.16;40.19;99890.78;10476547;28;20570;-59
2023/08/09 10:31:48;;;;;;;2.33;0.60;;;;;;;23.51;39.82;99892.25;10477307;28;20039;-59
2023/08/09 10:36:53;;;;;;;0.52;0.52;;;;;;;23.23;42.33;99890.97;10468825;28;20113;-59
2023/08/09 10:42:08;;;;;;;0.95;0.55;;;;;;;23.65;42.07;99896.81;10476127;28;20037;-59
2023/08/09 10:47:24;;;;;;;0.55;0.50;;;;;;;23.48;40.63;99897.91;10476295;28;20388;-58
2023/08/09 10:52:35;;;;;;;0.77;0.60;;;;;;;23.57;40.73;99902.22;10475755;28;20055;-59
2023/08/09 10:57:42;;;;;;;1.42;0.38;;;;;;;23.71;41.00;99911.31;10473086;28;20086;-59
2023/08/09 11:02:58;;;;;;;1.15;0.70;;;;;;;23.76;40.99;99904.41;10475639;28;20040;-59
2023/08/09 11:08:10;;;;;;;1.55;0.40;;;;;;;23.84;40.66;99922.25;10475467;28;20044;-59
2023/08/09 11:13:14;;;;;;;2.28;0.55;;;;;;;23.91;41.45;99924.03;10456812;28;20048;-59
2023/08/09 11:18:16;;;;;;;0.77;0.68;;;;;;;23.78;41.51;99920.28;10475109;28;20048;-58
2023/08/09 11:23:18;;;;;;;0.80;0.70;;;;;;;23.87;41.93;99922.72;10475526;28;20121;-58
2023/08/09 11:28:21;;;;;;;2.45;0.50;;;;;;;23.91;41.42;99918.69;10475116;28;20076;-59
2023/08/09 11:33:24;;;;;;;1.38;0.95;;;;;;;24.10;42.14;99923.56;10474753;28;20049;-59
2023/08/09 11:38:26;;;;;;;0.88;0.70;;;;;;;24.48;40.58;99915.59;10474820;28;20080;-59
2023/08/09 11:43:28;;;;;;;0.82;0.65;;;;;;;24.36;39.30;99917.03;10474963;28;20109;-59
2023/08/09 11:48:32;;;;;;;0.75;0.70;;;;;;;24.33;39.56;99912.06;10478221;28;20049;-59
2023/08/09 11:53:36;;;;;;;0.80;0.63;;;;;;;24.31;39.74;99914.09;10482766;28;20143;-59
2023/08/09 11:58:41;;;;;;;0.50;0.50;;;;;;;24.08;39.34;99917.56;10482255;28;20056;-59
2023/08/09 12:03:45;;;;;;;0.63;0.60;;;;;;;24.14;39.04;99927.56;10464049;28;20040;-59
2023/08/09 12:08:47;;;;;;;0.90;0.45;;;;;;;24.29;38.67;99930.28;10481714;28;20053;-60
2023/08/09 12:13:49;;;;;;;0.88;0.82;;;;;;;24.20;37.72;99929.53;10482439;28;20565;-59
2023/08/09 12:18:51;;;;;;;0.98;0.75;;;;;;;24.29;38.02;99947.16;10481185;28;20040;-59
2023/08/09 12:23:53;;;;;;;1.08;0.63;;;;;;;24.19;37.18;99948.41;10481294;28;20045;-59
2023/08/09 12:28:55;;;;;;;1.42;0.60;;;;;;;23.87;37.26;99952.09;10480975;28;20044;-59
2023/08/09 12:33:58;;;;;;;0.90;0.65;;;;;;;24.11;36.80;99954.66;10481432;28;20143;-59
2023/08/09 12:39:10;;;;;;;1.40;0.80;;;;;;;23.96;36.89;99963.56;10480678;28;20120;-59
2023/08/09 12:44:12;;;;;;;1.20;0.77;;;;;;;23.80;36.96;99983.19;10462887;28;20502;-59
2023/08/09 12:49:14;;;;;;;1.55;0.63;;;;;;;23.94;37.56;99971.75;10480297;28;20049;-59
2023/08/09 12:54:16;;;;;;;0.75;0.68;;;;;;;23.63;37.03;99975.44;10480515;28;20131;-59
2023/08/09 12:59:18;;;;;;;0.88;0.65;;;;;;;23.48;37.60;99970.81;10460845;28;20127;-59
2023/08/09 13:04:23;;;;;;;1.08;0.60;;;;;;;23.44;38.00;99974.84;10479706;28;20036;-59
2023/08/09 13:09:27;;;;;;;1.85;0.70;;;;;;;23.59;37.87;99982.97;10462303;28;20071;-59
2023/08/09 13:14:29;;;;;;;0.60;0.60;;;;;;;23.63;38.13;99986.13;10479713;28;20115;-59
2023/08/09 13:19:36;;;;;;;2.20;0.70;;;;;;;23.54;37.58;99987.97;10478979;28;20139;-59
2023/08/09 13:24:37;;;;;;;1.17;0.77;;;;;;;23.45;37.74;99991.72;10479076;28;20143;-59
2023/08/09 13:29:40;;;;;;;2.97;0.70;;;;;;;23.58;37.66;99999.13;10478622;28;20074;-59
2023/08/09 13:34:42;;;;;;;1.08;0.80;;;;;;;23.46;37.46;99999.53;10478837;28;20052;-59
2023/08/09 13:39:44;;;;;;;0.95;0.70;;;;;;;23.59;37.96;99999.00;10478620;28;20110;-59
2023/08/09 13:44:46;;;;;;;0.73;0.60;;;;;;;23.41;38.44;99993.88;10478239;28;20118;-59
2023/08/09 13:49:48;;;;;;;0.65;0.60;;;;;;;23.43;37.58;99999.06;10460439;28;20062;-59
2023/08/09 13:54:50;;;;;;;1.58;0.60;;;;;;;23.54;37.78;100004.00;10492293;28;20488;-59
2023/08/09 13:59:53;;;;;;;1.00;0.80;;;;;;;23.51;37.89;100001.69;10459191;28;20136;-59
2023/08/09 14:04:55;;;;;;;0.80;0.80;;;;;;;23.42;37.86;100000.88;10458797;28;20126;-59
2023/08/09 14:09:57;;;;;;;1.17;0.80;;;;;;;23.36;37.75;99998.03;10477055;28;20048;-59
2023/08/09 14:14:59;;;;;;;2.30;0.52;;;;;;;23.27;37.29;100009.72;10477027;28;20127;-59
2023/08/09 14:20:01;;;;;;;0.52;0.45;;;;;;;23.43;37.77;99994.53;10476907;28;20052;-59
2023/08/09 14:25:04;;;;;;;0.85;0.60;;;;;;;23.58;37.38;99991.97;10476602;28;20044;-59
2023/08/09 14:30:07;;;;;;;2.45;1.00;;;;;;;23.87;37.04;100002.84;10476933;28;20055;-59
2023/08/09 14:35:10;;;;;;;0.75;0.68;;;;;;;23.55;36.70;100008.34;10458330;28;20036;-58
2023/08/09 14:40:13;;;;;;;1.05;0.73;;;;;;;23.08;36.80;100015.44;10476523;28;20080;-58
2023/08/09 14:45:16;;;;;;;1.70;0.90;;;;;;;23.06;36.99;100004.94;10476203;28;20139;-58
2023/08/09 14:50:18;;;;;;;0.60;0.60;;;;;;;23.42;36.98;100000.88;10458343;28;20131;-58
2023/08/09 14:55:20;;;;;;;0.70;0.70;;;;;;;23.34;36.97;100005.38;10475943;28;20054;-58
2023/08/09 15:00:22;;;;;;;1.42;0.70;;;;;;;23.32;37.14;100016.22;10491425;28;20041;-58
2023/08/09 15:05:24;;;;;;;2.10;0.93;;;;;;;22.96;37.33;100014.13;10475624;28;20055;-59
2023/08/09 15:10:26;;;;;;;0.77;0.75;;;;;;;23.14;37.43;100014.75;10457625;28;20041;-58
2023/08/09 15:15:29;;;;;;;0.73;0.65;;;;;;;23.08;37.72;100018.13;10455711;28;20136;-58
2023/08/09 15:20:31;;;;;;;1.30;0.80;;;;;;;23.30;37.31;100014.72;10476047;28;20136;-58
2023/08/09 15:25:33;;;;;;;1.90;0.80;;;;;;;23.53;36.80;100021.03;10484333;28;20048;-58
2023/08/09 15:30:35;;;;;;;2.05;0.80;;;;;;;23.34;36.99;100032.06;10483925;28;20072;-58
2023/08/09 15:35:37;;;;;;;1.20;0.90;;;;;;;23.25;36.76;100035.75;10483079;28;20041;-58
2023/08/09 15:40:39;;;;;;;1.95;0.80;;;;;;;23.41;36.55;100028.56;10483169;28;20047;-58
2023/08/09 15:45:42;;;;;;;1.17;0.80;;;;;;;23.06;35.68;100025.44;10483379;28;20040;-58
2023/08/09 15:50:44;;;;;;;0.77;0.75;;;;;;;22.84;36.24;100029.63;10483287;28;20041;-58
2023/08/09 15:55:45;;;;;;;3.33;1.05;;;;;;;22.88;36.33;100025.63;10482378;28;20356;-59
2023/08/09 16:00:48;;;;;;;0.98;0.80;;;;;;;22.60;37.10;100043.78;10482359;28;20047;-59
2023/08/09 16:05:57;;;;;;;0.77;0.70;;;;;;;22.39;37.02;100047.91;10481813;28;20127;-59
2023/08/09 16:10:59;;;;;;;2.83;1.80;;;;;;;22.75;37.23;100035.97;10482468;28;20127;-59
2023/08/09 16:16:03;;;;;;;1.50;1.20;;;;;;;23.52;36.90;100040.72;10481658;28;20047;-59
2023/08/09 16:21:05;;;;;;;5.55;1.20;;;;;;;23.86;36.32;100037.75;10496636;28;20063;-59
2023/08/09 16:26:07;;;;;;;1.40;1.00;;;;;;;23.14;35.86;100046.78;10480863;28;20059;-59
2023/08/09 16:31:09;;;;;;;1.55;1.10;;;;;;;22.44;37.22;100051.75;10480879;28;20045;-59
2023/08/09 16:36:11;;;;;;;1.38;1.00;;;;;;;22.15;37.97;100056.69;10481316;28;20052;-59
2023/08/09 16:41:13;;;;;;;1.63;1.00;;;;;;;21.85;38.34;100055.41;10480272;28;20068;-59
2023/08/09 16:46:15;;;;;;;1.13;0.98;;;;;;;21.75;38.46;100056.50;10480037;28;20098;-59
2023/08/09 16:51:17;;;;;;;1.42;1.05;;;;;;;21.57;38.50;100061.09;10480754;28;20049;-59
2023/08/09 16:56:20;;;;;;;1.33;1.10;;;;;;;21.51;39.21;100061.72;10479883;28;20037;-59
2023/08/09 17:01:22;;;;;;;1.40;1.10;;;;;;;21.54;39.11;100061.38;10480337;28;20080;-58
2023/08/09 17:06:24;;;;;;;2.15;0.90;;;;;;;21.32;39.22;100059.25;10479945;28;20070;-58
2023/08/09 17:11:26;;;;;;;1.20;1.10;;;;;;;21.28;39.36;100069.34;10479635;28;20100;-59
2023/08/09 17:16:28;;;;;;;1.45;1.10;;;;;;;21.06;39.64;100076.03;10479121;28;20137;-59
2023/08/09 17:21:30;;;;;;;1.35;0.95;;;;;;;20.92;40.45;100076.59;10479401;28;20044;-59
2023/08/09 17:26:33;;;;;;;1.77;0.98;;;;;;;20.88;40.67;100082.38;10478914;28;20060;-59
2023/08/09 17:31:35;;;;;;;1.60;1.05;;;;;;;20.82;40.61;100073.19;10478758;28;20070;-59
2023/08/09 17:36:37;;;;;;;2.13;1.08;;;;;;;20.89;40.52;100081.34;10493435;28;20060;-59
2023/08/09 17:41:39;;;;;;;1.55;0.80;;;;;;;20.86;41.26;100085.19;10478619;28;20045;-59
2023/08/09 17:46:41;;;;;;;1.48;1.02;;;;;;;20.76;41.75;100097.72;10477797;28;20098;-59
2023/08/09 17:51:43;;;;;;;2.35;1.00;;;;;;;20.56;42.92;100093.50;10478416;28;20045;-59
2023/08/09 17:56:45;;;;;;;3.20;1.30;;;;;;;20.29;44.54;100104.19;10477301;28;20051;-59
2023/08/09 18:01:47;;;;;;;1.50;1.10;;;;;;;20.12;45.25;100097.00;10477367;28;20123;-59
2023/08/09 18:06:49;;;;;;;2.75;1.30;;;;;;;19.91;45.73;100105.22;10476961;28;20055;-59
2023/08/09 18:11:51;;;;;;;2.22;1.33;;;;;;;19.88;46.91;100115.28;10441828;28;20044;-59
2023/08/09 18:16:53;;;;;;;3.55;1.20;;;;;;;19.70;47.30;100120.50;10477078;28;20411;-59
2023/08/09 18:21:55;;;;;;;2.65;1.10;;;;;;;19.51;47.49;100122.34;10458695;28;20397;-59
2023/08/09 18:26:57;;;;;;;1.58;1.08;;;;;;;19.27;48.58;100115.72;10476823;28;20047;-59
2023/08/09 18:31:59;;;;;;;1.77;1.10;;;;;;;19.03;48.98;100127.75;10477159;28;20483;-59
2023/08/09 18:37:02;;;;;;;3.97;1.67;;;;;;;18.81;49.71;100128.81;10476752;28;20539;-59
2023/08/09 18:42:05;;;;;;;1.65;1.23;;;;;;;18.50;50.43;100137.88;10476089;28;20047;-59
2023/08/09 18:47:07;;;;;;;3.75;1.20;;;;;;;18.32;51.17;100147.47;10490860;28;20046;-59
2023/08/09 18:52:09;;;;;;;1.98;1.38;;;;;;;18.02;51.71;100155.38;10491309;28;20048;-59
2023/08/09 18:57:11;;;;;;;6.22;1.30;;;;;;;17.90;52.33;100154.66;10474952;28;20996;-59
2023/08/09 19:02:13;;;;;;;2.38;1.60;;;;;;;17.77;52.69;100159.34;10458263;28;20794;-59
2023/08/09 19:07:16;;;;;;;3.25;1.30;;;;;;;17.62;53.24;100161.47;10475722;28;20052;-59
2023/08/09 19:12:18;;;;;;;1.98;1.17;;;;;;;17.43;53.50;100171.94;10476007;28;20138;-59
2023/08/09 19:17:21;;;;;;;2.63;1.20;;;;;;;17.25;54.11;100175.25;10456491;28;20052;-59
2023/08/09 19:22:23;;;;;;;2.40;1.65;;;;;;;17.13;54.48;100179.75;10475707;28;20056;-59
2023/08/09 19:27:25;;;;;;;5.95;1.48;;;;;;;17.06;54.86;100178.56;10475037;28;20137;-59
2023/08/09 19:32:27;;;;;;;3.08;1.60;;;;;;;16.92;55.48;100189.44;10475432;28;20139;-59
2023/08/09 19:37:30;;;;;;;3.88;1.33;;;;;;;16.86;55.64;100192.56;10475289;28;20455;-59
2023/08/09 19:42:35;;;;;;;1.83;1.40;;;;;;;16.77;55.94;100198.63;10456956;28;20037;-59
2023/08/09 19:47:37;;;;;;;3.10;1.48;;;;;;;16.68;56.05;100202.84;10472743;28;20446;-59
2023/08/09 19:52:39;;;;;;;2.35;1.48;;;;;;;16.55;56.57;100199.50;10468331;28;20512;-59
2023/08/09 19:57:42;;;;;;;2.30;1.40;;;;;;;16.46;56.87;100205.53;10470119;28;20119;-59
2023/08/09 20:02:44;;;;;;;2.58;1.40;;;;;;;16.34;57.13;100210.91;10464668;28;20052;-59
2023/08/09 20:07:49;;;;;;;2.80;1.52;;;;;;;16.23;57.43;100212.59;10471822;28;20052;-59
2023/08/09 20:12:51;;;;;;;3.00;1.55;;;;;;;16.13;57.67;100218.69;10477994;28;20399;-59
2023/08/09 20:17:53;;;;;;;2.55;1.45;;;;;;;16.01;57.88;100222.28;10477906;28;20161;-59
2023/08/09 20:22:57;;;;;;;2.13;1.38;;;;;;;15.90;58.06;100219.63;10474555;28;20056;-59
2023/08/09 20:28:02;;;;;;;2.22;1.40;;;;;;;15.77;58.31;100221.56;10475323;28;20389;-59
2023/08/09 20:33:04;;;;;;;2.38;1.63;;;;;;;15.70;58.67;100210.63;10454618;28;20135;-59
2023/08/09 20:38:06;;;;;;;2.75;1.27;;;;;;;15.61;58.76;100213.97;10480427;28;20048;-60
2023/08/09 20:43:08;;;;;;;3.83;1.40;;;;;;;15.45;59.09;100221.31;10479343;28;20055;-60
2023/08/09 20:48:10;;;;;;;2.42;1.48;;;;;;;15.36;59.24;100222.84;10461056;28;20056;-60
2023/08/09 20:53:12;;;;;;;2.35;1.55;;;;;;;15.28;59.57;100229.66;10478102;28;20067;-60
2023/08/09 20:58:15;;;;;;;1.70;1.30;;;;;;;15.21;59.74;100225.78;10479921;28;20084;-60
2023/08/09 21:03:17;;;;;;;2.15;1.50;;;;;;;15.13;59.75;100228.13;10480774;28;21144;-60
2023/08/09 21:08:19;;;;;;;2.38;1.35;;;;;;;15.09;59.69;100234.59;10461484;28;20052;-60
2023/08/09 21:13:21;;;;;;;3.47;1.70;;;;;;;15.00;60.08;100245.81;10479708;28;20055;-60
2023/08/09 21:18:23;;;;;;;2.92;1.83;;;;;;;14.87;60.12;100251.13;10478189;28;20125;-60
2023/08/09 21:23:25;;;;;;;2.97;1.80;;;;;;;14.79;60.52;100261.38;10480193;28;20052;-60
2023/08/09 21:28:47;;;;;;;3.00;1.80;;;;;;;14.71;60.86;100249.69;10479119;28;20400;-60
2023/08/09 21:33:49;;;;;;;2.38;1.42;;;;;;;14.71;60.83;100260.22;10494651;28;20193;-60
2023/08/09 21:38:52;;;;;;;3.17;1.45;;;;;;;14.79;60.64;100263.16;10460408;28;20052;-59
2023/08/09 21:43:54;;;;;;;3.17;1.48;;;;;;;14.75;60.57;100267.81;10478138;28;20149;-59
2023/08/09 21:48:56;;;;;;;3.25;1.30;;;;;;;14.74;60.78;100266.09;10460261;28;20068;-59
2023/08/09 21:53:58;;;;;;;1.77;1.27;;;;;;;14.67;60.88;100271.94;10459879;28;20135;-59
2023/08/09 21:59:00;;;;;;;2.03;1.67;;;;;;;14.53;61.15;100278.19;10477798;28;20087;-60
2023/08/09 22:04:03;;;;;;;2.75;1.67;;;;;;;14.41;61.24;100277.19;10477473;28;20044;-59
2023/08/09 22:09:05;;;;;;;4.07;1.40;;;;;;;14.32;61.53;100287.53;10477564;28;20029;-60
2023/08/09 22:14:07;;;;;;;4.07;1.50;;;;;;;13.96;61.74;100293.53;10476612;28;20036;-60
2023/08/09 22:19:09;;;;;;;2.78;1.50;;;;;;;13.86;62.55;100287.19;10458799;28;20476;-59
2023/08/09 22:24:11;;;;;;;2.30;1.38;;;;;;;13.90;62.56;100286.06;10476657;28;20568;-60
2023/08/09 22:29:14;;;;;;;3.35;1.50;;;;;;;13.97;62.43;100294.38;10476339;28;20063;-60
2023/08/09 22:34:20;;;;;;;2.80;1.63;;;;;;;14.08;62.44;100295.34;10476630;28;20064;-60
2023/08/09 22:39:22;;;;;;;2.90;1.63;;;;;;;14.02;62.41;100292.28;10476321;28;20056;-59
2023/08/09 22:44:24;;;;;;;2.97;1.73;;;;;;;13.96;62.54;100290.91;10476121;28;20501;-59
2023/08/09 22:49:27;;;;;;;3.35;1.50;;;;;;;13.92;62.63;100296.47;10476281;28;20131;-60
2023/08/09 22:54:29;;;;;;;2.13;1.50;;;;;;;13.81;62.49;100305.09;10475702;28;20048;-59
2023/08/09 22:59:32;;;;;;;5.93;1.52;;;;;;;13.72;62.86;100308.31;10476397;28;20052;-59
2023/08/09 23:04:34;;;;;;;3.13;1.92;;;;;;;13.84;62.89;100315.38;10475709;28;20500;-59
2023/08/09 23:09:36;;;;;;;3.00;1.85;;;;;;;14.02;62.80;100311.53;10475716;28;20047;-59
2023/08/09 23:14:39;;;;;;;2.30;1.50;;;;;;;14.08;62.68;100302.38;10475315;28;20094;-59
2023/08/09 23:19:41;;;;;;;2.33;1.40;;;;;;;14.14;62.39;100313.34;10475603;28;20835;-59
2023/08/09 23:24:43;;;;;;;3.50;1.70;;;;;;;14.11;62.42;100310.03;10475027;28;20160;-59